Time;durP1;ratioP1;P1;durP2;ratioP2;P2;SDS_P1;SDS_P2;PMS_P1;PMS_P2;Temp;Humidity;BMP_temperature;BMP_pressure;BME280_temperature;BME280_humidity;BME280_pressure;Samples;Min_cycle;Max_cycle;Signal;HPM_P1;HPM_P2
2021/05/29 00:02:18;;;;;;;10.00;7.32;;;12.20;99.90;;;;;;4723892;30;20194;-86
2021/05/29 00:04:44;;;;;;;11.43;7.50;;;12.20;99.90;;;;;;4756876;30;20258;-89
2021/05/29 00:07:11;;;;;;;10.38;6.88;;;12.10;99.90;;;;;;4755676;30;20199;-87
2021/05/29 00:09:38;;;;;;;9.50;7.70;;;12.10;99.90;;;;;;4739364;30;20214;-86
2021/05/29 00:12:06;;;;;;;13.02;7.40;;;12.10;99.90;;;;;;4734675;30;20192;-87
2021/05/29 00:14:34;;;;;;;13.07;7.53;;;12.20;99.90;;;;;;4734994;30;20219;-86
2021/05/29 00:17:00;;;;;;;11.18;7.60;;;12.20;99.90;;;;;;4733817;30;20195;-86
2021/05/29 00:19:26;;;;;;;8.82;6.72;;;12.20;99.90;;;;;;4735931;30;20266;-86
2021/05/29 00:21:52;;;;;;;11.15;7.32;;;12.20;99.90;;;;;;4735815;30;20245;-86
2021/05/29 00:24:17;;;;;;;10.95;7.72;;;12.20;99.90;;;;;;4731772;30;20252;-85
2021/05/29 00:26:44;;;;;;;14.85;8.02;;;12.10;99.90;;;;;;4718065;30;20216;-86
2021/05/29 00:29:10;;;;;;;14.52;7.93;;;;;;;;;;4718557;30;20609;-85
2021/05/29 00:31:36;;;;;;;12.25;8.30;;;12.10;99.90;;;;;;4703041;30;20251;-85
2021/05/29 00:34:02;;;;;;;12.05;8.30;;;12.10;99.90;;;;;;4718021;30;20219;-85
2021/05/29 00:36:27;;;;;;;9.27;7.28;;;12.10;99.90;;;;;;4718835;30;20204;-85
2021/05/29 00:38:53;;;;;;;14.88;7.65;;;;;;;;;;4702507;30;20192;-85
2021/05/29 00:41:19;;;;;;;13.55;8.38;;;12.20;99.90;;;;;;4718380;30;20192;-85
2021/05/29 00:43:46;;;;;;;12.73;8.80;;;12.10;99.90;;;;;;4688024;30;20192;-86
2021/05/29 00:46:12;;;;;;;10.90;7.68;;;12.10;99.90;;;;;;4702877;30;20199;-86
2021/05/29 00:48:38;;;;;;;11.90;7.63;;;12.10;99.90;;;;;;4702715;30;20196;-85
2021/05/29 00:51:05;;;;;;;12.98;8.18;;;12.10;99.90;;;;;;4702646;30;20188;-86
2021/05/29 00:53:33;;;;;;;12.20;8.07;;;12.10;99.90;;;;;;4717259;30;20224;-85
2021/05/29 00:56:00;;;;;;;13.48;8.90;;;12.10;99.90;;;;;;4718005;30;20192;-85
2021/05/29 00:58:26;;;;;;;15.85;8.95;;;12.10;99.90;;;;;;4718170;30;20284;-86
2021/05/29 01:00:53;;;;;;;12.43;8.98;;;12.10;99.90;;;;;;4717845;30;20195;-86
2021/05/29 01:03:19;;;;;;;12.65;8.45;;;12.10;99.90;;;;;;4718116;30;20192;-86
2021/05/29 01:05:45;;;;;;;12.73;8.90;;;12.10;99.90;;;;;;4718463;30;20205;-85
2021/05/29 01:08:11;;;;;;;11.60;7.93;;;11.90;99.90;;;;;;4702122;30;20188;-85
2021/05/29 01:10:38;;;;;;;12.75;9.18;;;12.10;99.90;;;;;;4702389;30;20552;-86
2021/05/29 01:13:06;;;;;;;12.38;8.50;;;12.40;99.90;;;;;;4716408;30;20199;-85
2021/05/29 01:15:53;;;;;;;13.23;8.75;;;12.00;99.90;;;;;;4716537;30;20199;-86
2021/05/29 01:18:19;;;;;;;16.52;8.70;;;12.10;99.90;;;;;;4705033;30;20669;-86
2021/05/29 01:20:46;;;;;;;16.05;8.85;;;11.90;99.90;;;;;;4713446;30;20286;-85
2021/05/29 01:23:13;;;;;;;13.98;8.82;;;11.90;99.90;;;;;;4718890;30;20588;-86
2021/05/29 01:25:42;;;;;;;13.60;9.40;;;11.80;99.90;;;;;;4734210;30;20640;-85
2021/05/29 01:28:18;;;;;;;14.45;9.80;;;11.70;99.90;;;;;;4733791;30;20202;-86
2021/05/29 01:30:47;;;;;;;14.10;9.80;;;11.70;99.90;;;;;;4735661;30;20171;-86
2021/05/29 01:33:15;;;;;;;16.15;9.68;;;11.60;99.90;;;;;;4735087;30;20274;-86
2021/05/29 01:35:43;;;;;;;14.85;9.50;;;11.50;99.90;;;;;;4735000;30;20192;-86
2021/05/29 01:38:10;;;;;;;16.03;9.93;;;11.50;99.90;;;;;;4734141;30;20199;-86
2021/05/29 01:40:37;;;;;;;16.05;10.40;;;11.50;99.90;;;;;;4735048;30;20179;-86
2021/05/29 01:43:03;;;;;;;16.17;10.73;;;11.60;99.90;;;;;;4719310;30;20202;-86
2021/05/29 01:45:30;;;;;;;17.27;11.38;;;11.50;99.90;;;;;;4719451;30;20192;-85
2021/05/29 01:47:56;;;;;;;16.80;10.30;;;11.50;99.90;;;;;;4753114;30;20226;-86
2021/05/29 01:50:23;;;;;;;17.58;11.20;;;11.60;99.90;;;;;;4730629;30;20210;-85
2021/05/29 01:52:58;;;;;;;16.05;10.88;;;11.50;99.90;;;;;;4722246;30;20277;-85
2021/05/29 01:55:29;;;;;;;20.23;11.45;;;11.50;99.90;;;;;;4719465;30;20260;-85
2021/05/29 01:57:56;;;;;;;17.23;10.82;;;11.50;99.90;;;;;;4735069;30;20175;-86
2021/05/29 02:00:25;;;;;;;16.70;10.48;;;11.50;99.90;;;;;;4719073;30;20195;-86
2021/05/29 02:02:51;;;;;;;25.77;11.68;;;11.40;99.90;;;;;;4719231;30;20774;-85
2021/05/29 02:05:19;;;;;;;17.83;11.68;;;11.40;99.90;;;;;;4704701;30;20205;-86
2021/05/29 02:07:45;;;;;;;18.33;12.00;;;11.40;99.90;;;;;;4734840;30;20192;-86
2021/05/29 02:10:18;;;;;;;15.68;11.23;;;11.40;99.90;;;;;;4718783;30;20195;-85
2021/05/29 02:12:47;;;;;;;17.13;10.90;;;11.40;99.90;;;;;;4734784;30;20190;-86
2021/05/29 02:15:16;;;;;;;16.95;10.35;;;11.40;99.90;;;;;;4733123;30;20219;-86
2021/05/29 02:17:43;;;;;;;15.87;11.07;;;11.30;99.90;;;;;;4734566;30;20198;-86
2021/05/29 02:20:09;;;;;;;18.80;11.52;;;11.30;99.90;;;;;;4719015;30;20639;-86
2021/05/29 02:22:35;;;;;;;18.60;11.57;;;11.30;99.90;;;;;;4718902;30;20191;-86
2021/05/29 02:25:02;;;;;;;15.00;10.88;;;11.20;99.90;;;;;;4718421;30;20251;-86
2021/05/29 02:27:28;;;;;;;16.15;10.65;;;11.20;99.90;;;;;;4718728;30;20222;-86
2021/05/29 02:29:54;;;;;;;19.48;11.52;;;11.20;99.90;;;;;;4718701;30;20226;-86
2021/05/29 02:32:19;;;;;;;18.33;10.93;;;11.20;99.90;;;;;;4718535;30;20192;-86
2021/05/29 02:34:45;;;;;;;22.15;12.20;;;;;;;;;;4703961;30;20215;-85
2021/05/29 02:37:11;;;;;;;17.95;11.18;;;11.20;99.90;;;;;;4718453;30;20199;-86
2021/05/29 02:39:37;;;;;;;23.13;11.68;;;11.20;99.90;;;;;;4719508;30;20216;-86
2021/05/29 02:42:03;;;;;;;19.58;12.48;;;11.20;99.90;;;;;;4721686;30;20214;-86
2021/05/29 02:44:28;;;;;;;17.08;11.55;;;11.20;99.90;;;;;;4721766;30;20222;-85
2021/05/29 02:46:54;;;;;;;19.40;12.18;;;11.10;99.90;;;;;;4722171;30;20646;-85
2021/05/29 02:49:20;;;;;;;19.50;12.15;;;11.10;99.90;;;;;;4707129;30;20737;-85
2021/05/29 02:51:46;;;;;;;19.30;13.10;;;;;;;;;;4722093;30;20231;-85
2021/05/29 02:54:11;;;;;;;21.23;12.73;;;11.00;99.90;;;;;;4721688;30;20231;-86
2021/05/29 02:56:37;;;;;;;16.98;12.43;;;;;;;;;;4721952;30;20203;-86
2021/05/29 02:59:03;;;;;;;21.25;12.48;;;11.00;99.90;;;;;;4721803;30;20198;-87
2021/05/29 03:01:29;;;;;;;20.83;12.67;;;10.60;99.90;;;;;;4721750;30;20192;-86
2021/05/29 03:03:54;;;;;;;21.48;13.32;;;11.00;99.90;;;;;;4721830;30;20272;-87
2021/05/29 03:06:20;;;;;;;24.57;12.50;;;11.00;99.90;;;;;;4721412;30;20252;-85
2021/05/29 03:08:46;;;;;;;19.00;12.73;;;11.00;99.90;;;;;;4737457;30;20536;-85
2021/05/29 03:11:12;;;;;;;23.48;13.32;;;10.80;99.90;;;;;;4721360;30;20654;-85
2021/05/29 03:13:37;;;;;;;26.45;14.23;;;11.00;99.90;;;;;;4721621;30;20793;-85
2021/05/29 03:16:04;;;;;;;21.55;13.65;;;11.00;99.90;;;;;;4721109;30;20286;-86
2021/05/29 03:18:30;;;;;;;22.95;13.73;;;11.00;99.90;;;;;;4707054;30;20536;-84
2021/05/29 03:20:57;;;;;;;22.07;14.53;;;10.80;99.90;;;;;;4737414;30;20642;-85
2021/05/29 03:23:24;;;;;;;21.23;13.00;;;11.00;99.90;;;;;;4706678;30;20250;-85
2021/05/29 03:25:50;;;;;;;20.60;14.23;;;11.10;99.90;;;;;;4721789;30;20188;-85
2021/05/29 03:28:16;;;;;;;20.10;13.15;;;10.90;99.90;;;;;;4721004;30;20200;-85
2021/05/29 03:30:42;;;;;;;19.58;13.70;;;;;;;;;;4737129;30;20674;-86
2021/05/29 03:33:11;;;;;;;23.40;13.87;;;11.00;99.90;;;;;;4723442;30;20201;-86
2021/05/29 03:35:37;;;;;;;20.85;13.23;;;11.00;99.90;;;;;;4738443;30;20225;-86
2021/05/29 03:38:03;;;;;;;22.90;14.20;;;11.00;99.90;;;;;;4754649;30;20217;-86
2021/05/29 03:40:28;;;;;;;20.13;13.77;;;;;;;;;;4754796;30;20619;-86
2021/05/29 03:42:54;;;;;;;23.38;13.60;;;11.00;99.90;;;;;;4738488;30;20194;-86
2021/05/29 03:45:21;;;;;;;21.55;14.20;;;11.00;99.90;;;;;;4723843;30;20200;-86
2021/05/29 03:47:48;;;;;;;24.83;13.55;;;11.00;99.90;;;;;;4738749;30;20720;-86
2021/05/29 03:50:25;;;;;;;19.65;13.50;;;11.10;99.90;;;;;;4754052;30;20218;-86
2021/05/29 03:52:51;;;;;;;19.90;13.18;;;11.00;99.90;;;;;;4737712;30;20200;-86
2021/05/29 03:55:18;;;;;;;20.42;13.65;;;11.10;99.90;;;;;;4723842;30;20218;-86
2021/05/29 03:57:45;;;;;;;22.73;13.85;;;11.00;99.90;;;;;;4738227;30;20203;-86
2021/05/29 04:00:13;;;;;;;22.20;14.13;;;11.10;99.90;;;;;;4753864;30;20187;-87
2021/05/29 04:02:39;;;;;;;24.45;13.65;;;11.10;99.90;;;;;;4754633;30;20215;-85
2021/05/29 04:05:06;;;;;;;26.35;15.20;;;11.10;99.90;;;;;;4723780;30;20202;-86
2021/05/29 04:07:32;;;;;;;23.92;14.07;;;11.20;99.90;;;;;;4738169;30;20269;-86
2021/05/29 04:09:58;;;;;;;23.15;14.65;;;11.20;99.90;;;;;;4754159;30;20270;-86
2021/05/29 04:12:27;;;;;;;21.25;13.13;;;11.20;99.90;;;;;;4723460;30;20186;-86
2021/05/29 04:14:52;;;;;;;22.33;14.10;;;11.20;99.90;;;;;;4738072;30;20233;-86
2021/05/29 04:17:18;;;;;;;23.60;14.55;;;;;;;;;;4726039;30;20229;-87
2021/05/29 04:19:44;;;;;;;22.90;14.60;;;11.30;99.90;;;;;;4723790;30;20221;-86
2021/05/29 04:22:10;;;;;;;20.13;13.98;;;11.30;99.90;;;;;;4737856;30;20724;-86
2021/05/29 04:24:37;;;;;;;24.83;14.13;;;11.30;99.90;;;;;;4723318;30;20246;-86
2021/05/29 04:27:04;;;;;;;21.73;13.85;;;11.30;99.90;;;;;;4737861;30;20657;-86
2021/05/29 04:29:29;;;;;;;21.48;14.70;;;11.20;99.90;;;;;;4753762;30;20191;-86
2021/05/29 04:31:55;;;;;;;23.87;14.67;;;11.20;99.90;;;;;;4737978;30;20198;-86
2021/05/29 04:34:21;;;;;;;24.77;14.50;;;11.20;99.90;;;;;;4737769;30;20222;-86
2021/05/29 04:36:47;;;;;;;22.57;14.10;;;;;;;;;;4753761;30;20570;-86
2021/05/29 04:39:13;;;;;;;23.75;14.82;;;11.20;99.90;;;;;;4736344;30;20190;-86
2021/05/29 04:41:39;;;;;;;27.15;14.82;;;;;;;;;;4721984;30;20249;-86
2021/05/29 04:44:04;;;;;;;28.50;15.23;;;11.30;99.90;;;;;;4722074;30;20221;-86
2021/05/29 04:46:31;;;;;;;27.10;15.90;;;;;;;;;;4736966;30;20637;-86
2021/05/29 04:48:57;;;;;;;24.80;15.68;;;11.40;99.90;;;;;;4737549;30;20710;-86
2021/05/29 04:51:23;;;;;;;22.08;14.30;;;11.50;99.90;;;;;;4737169;30;20240;-86
2021/05/29 04:53:49;;;;;;;26.52;14.45;;;;;;;;;;4719594;30;20214;-87
2021/05/29 04:56:16;;;;;;;23.77;15.15;;;11.70;99.90;;;;;;4775758;30;20181;-87
2021/05/29 04:58:42;;;;;;;18.92;13.52;;;11.90;99.90;;;;;;4771910;30;20187;-86
2021/05/29 05:01:10;;;;;;;20.88;12.77;;;12.00;99.90;;;;;;4744965;30;20194;-86
2021/05/29 05:03:38;;;;;;;18.77;13.00;;;12.20;99.90;;;;;;4739295;30;20191;-87
2021/05/29 05:06:05;;;;;;;20.67;13.32;;;12.40;99.90;;;;;;4753030;30;20182;-86
2021/05/29 05:08:31;;;;;;;21.45;13.23;;;12.60;99.90;;;;;;4737265;30;20573;-86
2021/05/29 05:10:57;;;;;;;19.60;12.93;;;12.80;99.90;;;;;;4737621;30;20190;-87
2021/05/29 05:13:27;;;;;;;16.88;12.07;;;13.10;99.90;;;;;;4752892;30;20245;-87
2021/05/29 05:15:53;;;;;;;18.52;12.18;;;13.10;99.90;;;;;;4737044;30;20209;-86
2021/05/29 05:18:21;;;;;;;16.42;11.63;;;13.20;99.90;;;;;;4722697;30;20191;-87
2021/05/29 05:20:47;;;;;;;16.17;12.05;;;13.10;99.90;;;;;;4722797;30;20257;-86
2021/05/29 05:23:13;;;;;;;15.52;11.38;;;13.10;99.90;;;;;;4752533;30;20248;-86
2021/05/29 05:25:39;;;;;;;17.95;11.85;;;13.10;99.90;;;;;;4752735;30;20182;-87
2021/05/29 05:28:04;;;;;;;16.83;11.82;;;13.10;99.90;;;;;;4737013;30;20557;-86
2021/05/29 05:30:30;;;;;;;15.60;11.52;;;13.10;99.90;;;;;;4752759;30;20189;-85
2021/05/29 05:33:02;;;;;;;20.02;11.02;;;13.10;99.90;;;;;;4752878;30;20262;-85
2021/05/29 05:35:27;;;;;;;15.90;10.98;;;13.00;99.90;;;;;;4750427;30;20218;-86
2021/05/29 05:37:53;;;;;;;19.45;11.13;;;;;;;;;;4722941;30;20201;-86
2021/05/29 05:40:19;;;;;;;38.15;20.30;;;13.00;99.90;;;;;;4737268;30;20194;-85
2021/05/29 05:42:45;;;;;;;19.33;11.48;;;13.00;99.90;;;;;;4757134;30;20187;-85
2021/05/29 05:45:11;;;;;;;16.27;11.18;;;13.10;99.90;;;;;;4751780;30;20234;-85
2021/05/29 05:47:37;;;;;;;17.17;11.63;;;13.20;99.90;;;;;;4769582;30;20195;-87
2021/05/29 05:50:04;;;;;;;19.38;11.88;;;13.30;99.90;;;;;;4750690;30;20197;-85
2021/05/29 05:52:29;;;;;;;20.35;12.43;;;13.40;99.90;;;;;;4750192;30;20199;-85
2021/05/29 05:54:55;;;;;;;18.55;11.80;;;13.40;99.90;;;;;;4738969;30;20214;-86
2021/05/29 05:57:20;;;;;;;17.55;12.23;;;13.40;99.90;;;;;;4752270;30;20202;-86
2021/05/29 05:59:46;;;;;;;20.38;12.68;;;;;;;;;;4707400;30;20198;-85
2021/05/29 06:02:12;;;;;;;19.20;12.75;;;13.40;99.90;;;;;;4751799;30;20262;-86
2021/05/29 06:04:38;;;;;;;19.33;12.02;;;13.40;99.90;;;;;;4721399;30;20796;-86
2021/05/29 06:07:04;;;;;;;21.13;12.48;;;13.40;99.90;;;;;;4736084;30;20193;-86
2021/05/29 06:09:29;;;;;;;25.95;13.50;;;13.40;99.90;;;;;;4721632;30;20194;-87
2021/05/29 06:11:56;;;;;;;17.50;12.60;;;13.40;99.90;;;;;;4737089;30;20197;-87
2021/05/29 06:19:50;;;;;;;20.17;13.82;;;13.50;99.90;;;;;;4755791;30;20372;-87
2021/05/29 06:22:16;;;;;;;17.17;12.55;;;;;;;;;;4740358;30;20676;-87
2021/05/29 06:24:42;;;;;;;20.50;13.65;;;13.50;99.90;;;;;;4739858;30;20732;-88
2021/05/29 06:27:07;;;;;;;16.85;12.15;;;13.80;99.90;;;;;;4725096;30;20219;-86
2021/05/29 06:29:33;;;;;;;16.67;12.13;;;14.00;99.90;;;;;;4753170;30;20198;-88
2021/05/29 06:31:59;;;;;;;15.23;11.05;;;14.10;99.90;;;;;;4715849;30;20276;-87
2021/05/29 06:34:25;;;;;;;16.27;11.82;;;14.30;99.90;;;;;;4755241;30;20691;-88
2021/05/29 06:36:51;;;;;;;17.20;11.10;;;14.50;99.90;;;;;;4722061;30;20203;-88
2021/05/29 06:39:17;;;;;;;16.55;11.68;;;14.70;99.90;;;;;;4737326;30;20187;-88
2021/05/29 06:41:43;;;;;;;17.13;11.98;;;14.70;99.90;;;;;;4722414;30;20201;-86
2021/05/29 06:44:10;;;;;;;16.85;11.82;;;14.70;99.90;;;;;;4753206;30;20286;-86
2021/05/29 06:46:36;;;;;;;14.88;11.45;;;14.70;99.90;;;;;;4736005;30;20193;-88
2021/05/29 06:49:03;;;;;;;16.52;12.35;;;15.00;99.90;;;;;;4752597;30;20334;-89
2021/05/29 06:54:24;;;;;;;14.07;10.38;;;14.90;99.90;;;;;;4752712;30;20241;-86
2021/05/29 06:59:33;;;;;;;12.40;9.38;;;14.90;99.90;;;;;;4739179;30;20559;-87
2021/05/29 07:01:59;;;;;;;16.98;11.98;;;14.80;99.90;;;;;;4752561;30;20195;-85
2021/05/29 07:04:25;;;;;;;13.23;9.27;;;14.90;99.90;;;;;;4722957;30;20218;-85
2021/05/29 07:06:51;;;;;;;14.25;9.23;;;14.90;99.90;;;;;;4751250;30;20285;-86
2021/05/29 07:09:19;;;;;;;12.68;9.25;;;14.80;99.90;;;;;;4736106;30;20631;-87
2021/05/29 07:11:45;;;;;;;11.15;9.13;;;14.60;99.90;;;;;;4751957;30;20293;-86
2021/05/29 07:14:11;;;;;;;11.75;8.23;;;14.60;99.90;;;;;;4707122;30;20211;-87
2021/05/29 07:16:38;;;;;;;14.27;8.40;;;14.40;99.90;;;;;;4751815;30;20206;-86
2021/05/29 07:19:04;;;;;;;9.40;8.25;;;14.30;99.90;;;;;;4750781;30;20194;-86
2021/05/29 07:21:30;;;;;;;11.10;8.02;;;14.40;99.90;;;;;;4751395;30;20187;-85
2021/05/29 07:23:56;;;;;;;13.27;8.27;;;14.20;99.90;;;;;;4721786;30;20249;-86
2021/05/29 07:26:21;;;;;;;10.55;8.43;;;14.20;99.90;;;;;;4752082;30;20194;-86
2021/05/29 07:28:47;;;;;;;15.70;7.78;;;14.30;99.90;;;;;;4751818;30;20202;-85
2021/05/29 07:31:13;;;;;;;9.77;8.30;;;14.50;99.90;;;;;;4751227;30;20222;-86
2021/05/29 07:33:39;;;;;;;12.48;7.93;;;14.80;99.90;;;;;;4736695;30;20269;-85
2021/05/29 07:36:05;;;;;;;9.75;7.70;;;14.80;99.90;;;;;;4722228;30;20206;-86
2021/05/29 07:38:30;;;;;;;11.05;7.80;;;14.90;99.90;;;;;;4750472;30;20202;-87
2021/05/29 07:40:57;;;;;;;10.32;7.88;;;14.80;99.90;;;;;;4751025;30;20276;-87
2021/05/29 07:43:22;;;;;;;9.02;7.00;;;14.70;99.90;;;;;;4735555;30;20665;-87
2021/05/29 07:45:49;;;;;;;8.82;6.85;;;15.00;99.90;;;;;;4736209;30;20199;-87
2021/05/29 07:48:16;;;;;;;11.13;7.20;;;15.20;99.90;;;;;;4734197;30;20202;-87
2021/05/29 07:50:57;;;;;;;10.65;7.53;;;15.20;99.90;;;;;;4719064;30;20195;-87
2021/05/29 07:53:31;;;;;;;12.18;7.28;;;15.30;99.90;;;;;;4752068;30;20201;-87
2021/05/29 07:55:58;;;;;;;10.07;7.28;;;15.30;99.90;;;;;;4736313;30;20201;-87
2021/05/29 07:58:25;;;;;;;10.98;7.97;;;15.30;99.90;;;;;;4751780;30;20238;-87
2021/05/29 08:00:51;;;;;;;10.57;7.78;;;15.30;99.90;;;;;;4749842;30;20206;-87
2021/05/29 08:03:19;;;;;;;12.68;8.65;;;15.00;99.90;;;;;;4749961;30;20215;-88
2021/05/29 08:05:46;;;;;;;11.35;8.45;;;14.80;99.90;;;;;;4750064;30;20186;-87
2021/05/29 08:08:12;;;;;;;9.85;7.93;;;14.60;99.90;;;;;;4749728;30;20195;-88
2021/05/29 08:10:38;;;;;;;12.55;8.63;;;14.40;99.90;;;;;;4719754;30;20359;-88
2021/05/29 08:13:04;;;;;;;9.52;7.60;;;14.30;99.90;;;;;;4733937;30;20202;-87
2021/05/29 08:15:30;;;;;;;9.40;6.72;;;14.10;99.90;;;;;;4734750;30;20233;-87
2021/05/29 08:17:55;;;;;;;7.38;6.05;;;14.10;99.90;;;;;;4747292;30;20289;-87
2021/05/29 08:20:21;;;;;;;8.57;6.28;;;14.10;99.90;;;;;;4734836;30;20245;-87
2021/05/29 08:22:47;;;;;;;6.63;5.70;;;14.10;99.90;;;;;;4734795;30;20213;-87
2021/05/29 08:25:13;;;;;;;6.63;5.63;;;14.10;99.90;;;;;;4748652;30;20250;-88
2021/05/29 08:27:38;;;;;;;8.85;6.18;;;14.10;99.90;;;;;;4719845;30;20193;-86
2021/05/29 08:30:05;;;;;;;11.95;6.03;;;14.00;99.90;;;;;;4747531;30;20198;-86
2021/05/29 08:32:31;;;;;;;9.70;6.57;;;14.10;99.90;;;;;;4716835;30;20227;-88
2021/05/29 08:34:57;;;;;;;7.88;5.95;;;14.20;99.90;;;;;;4750777;30;20712;-88
2021/05/29 08:37:22;;;;;;;9.45;5.97;;;14.10;99.90;;;;;;4732883;30;20218;-85
2021/05/29 08:39:49;;;;;;;6.25;5.30;;;14.00;99.90;;;;;;4749486;30;20207;-86
2021/05/29 08:42:15;;;;;;;9.18;6.50;;;14.00;99.90;;;;;;4750855;30;20194;-86
2021/05/29 08:44:41;;;;;;;8.05;5.80;;;14.20;99.90;;;;;;4736327;30;20230;-84
2021/05/29 08:47:07;;;;;;;5.22;4.50;;;14.50;99.90;;;;;;4751237;30;20669;-84
2021/05/29 08:49:33;;;;;;;6.70;4.60;;;;;;;;;;4734221;30;20202;-86
2021/05/29 08:52:01;;;;;;;7.10;5.15;;;14.60;99.90;;;;;;4748809;30;20206;-87
2021/05/29 08:54:30;;;;;;;6.63;4.88;;;15.50;99.90;;;;;;4704968;30;20639;-87
2021/05/29 08:56:56;;;;;;;5.32;4.82;;;15.30;99.90;;;;;;4733224;30;20202;-87
2021/05/29 08:59:22;;;;;;;5.75;4.65;;;15.80;99.90;;;;;;4732851;30;20209;-85
2021/05/29 09:01:47;;;;;;;8.73;5.25;;;15.80;99.90;;;;;;4732429;30;20220;-85
2021/05/29 09:04:13;;;;;;;4.22;3.83;;;15.90;99.90;;;;;;4718510;30;20198;-84
2021/05/29 09:06:42;;;;;;;4.78;3.85;;;16.00;99.90;;;;;;4749036;30;20618;-86
2021/05/29 09:09:16;;;;;;;4.78;4.30;;;15.90;99.90;;;;;;4749380;30;20264;-85
2021/05/29 09:11:50;;;;;;;5.40;3.90;;;16.20;99.90;;;;;;4732766;30;20479;-85
2021/05/29 09:14:22;;;;;;;8.27;4.95;;;16.40;99.90;;;;;;4734872;30;20213;-85
2021/05/29 09:17:03;;;;;;;6.32;4.88;;;16.20;99.90;;;;;;4734665;30;20714;-85
2021/05/29 09:20:08;;;;;;;5.15;4.65;;;16.00;99.90;;;;;;4751203;30;20202;-85
2021/05/29 09:22:37;;;;;;;5.72;4.15;;;15.70;99.90;;;;;;4688186;30;20196;-86
2021/05/29 09:25:05;;;;;;;5.72;3.60;;;15.30;99.90;;;;;;4679285;30;20249;-86
2021/05/29 09:27:37;;;;;;;5.25;3.83;;;15.10;99.90;;;;;;4702735;30;20272;-86
2021/05/29 09:30:08;;;;;;;8.63;4.13;;;14.70;99.90;;;;;;4734819;30;20202;-85
2021/05/29 09:32:35;;;;;;;7.07;4.18;;;14.80;99.90;;;;;;4738204;30;20249;-86
2021/05/29 09:35:10;;;;;;;3.90;3.60;;;14.80;99.90;;;;;;4750689;30;20253;-86
2021/05/29 09:37:36;;;;;;;4.00;3.38;;;15.00;99.90;;;;;;4734583;30;20194;-86
2021/05/29 09:40:09;;;;;;;4.95;3.60;;;15.00;99.90;;;;;;4734345;30;20257;-85
2021/05/29 09:42:37;;;;;;;4.20;3.03;;;15.20;99.90;;;;;;4750044;30;20349;-84
2021/05/29 09:45:25;;;;;;;5.07;3.65;;;15.30;99.90;;;;;;4750718;30;20198;-84
2021/05/29 09:48:17;;;;;;;5.15;3.40;;;15.60;99.90;;;;;;4740797;30;20672;-84
2021/05/29 09:51:01;;;;;;;3.47;2.90;;;15.90;99.90;;;;;;4748221;30;20216;-86
2021/05/29 09:53:33;;;;;;;2.72;2.45;;;16.10;99.90;;;;;;4750756;30;20202;-85
2021/05/29 09:55:59;;;;;;;2.78;2.33;;;15.90;99.90;;;;;;4756614;30;20194;-85
2021/05/29 09:58:57;;;;;;;4.75;3.03;;;15.80;99.90;;;;;;4748541;30;20201;-85
2021/05/29 10:01:45;;;;;;;2.90;2.60;;;15.80;99.90;;;;;;4765792;30;20209;-85
2021/05/29 10:04:35;;;;;;;3.30;3.00;;;15.70;99.90;;;;;;4751057;30;20214;-84
2021/05/29 10:07:04;;;;;;;5.97;2.58;;;15.60;99.90;;;;;;4739605;30;20202;-84
2021/05/29 10:09:30;;;;;;;5.18;2.17;;;15.60;99.90;;;;;;4735505;30;20684;-84
2021/05/29 10:11:57;;;;;;;3.17;2.58;;;15.70;99.90;;;;;;4739237;30;20222;-86
2021/05/29 10:14:23;;;;;;;3.95;3.10;;;15.70;99.90;;;;;;4731067;30;20717;-86
2021/05/29 10:16:49;;;;;;;3.33;2.97;;;15.70;99.90;;;;;;4750154;30;20213;-84
2021/05/29 10:19:17;;;;;;;4.47;3.40;;;15.60;99.90;;;;;;4737952;30;20197;-85
2021/05/29 10:21:44;;;;;;;4.00;3.38;;;15.50;99.90;;;;;;4735863;30;20278;-84
2021/05/29 10:24:29;;;;;;;3.67;3.30;;;15.30;99.90;;;;;;4705200;30;20341;-83
2021/05/29 10:26:55;;;;;;;4.32;3.13;;;15.20;99.90;;;;;;4760107;30;20230;-85
2021/05/29 10:29:26;;;;;;;5.15;3.47;;;15.20;99.90;;;;;;4746074;30;20297;-84
2021/05/29 10:32:10;;;;;;;8.00;3.85;;;15.10;99.90;;;;;;4765696;30;20201;-84
2021/05/29 10:34:58;;;;;;;5.95;4.25;;;15.10;99.90;;;;;;4749207;30;20221;-83
2021/05/29 10:37:37;;;;;;;5.38;3.80;;;15.00;99.90;;;;;;4752818;30;20199;-84
2021/05/29 10:40:30;;;;;;;4.25;3.17;;;15.00;99.90;;;;;;4748054;30;20205;-86
2021/05/29 10:43:09;;;;;;;3.83;2.78;;;15.30;99.90;;;;;;4748214;30;20221;-85
2021/05/29 10:45:37;;;;;;;3.90;2.58;;;15.70;99.90;;;;;;4746347;30;20249;-85
2021/05/29 10:48:06;;;;;;;3.05;2.47;;;16.00;99.90;;;;;;4746693;30;20634;-86
2021/05/29 10:50:44;;;;;;;3.58;2.25;;;16.30;99.90;;;;;;4732506;30;20276;-88
2021/05/29 10:53:30;;;;;;;4.55;3.55;;;16.50;99.90;;;;;;4749146;30;20195;-87
2021/05/29 10:56:24;;;;;;;2.97;2.30;;;16.50;99.90;;;;;;4732104;30;20684;-86
2021/05/29 10:59:12;;;;;;;7.75;2.08;;;16.40;99.90;;;;;;4748536;30;20206;-87
2021/05/29 11:01:42;;;;;;;1.92;1.77;;;16.10;99.90;;;;;;4734408;30;20187;-85
2021/05/29 11:04:21;;;;;;;2.35;1.42;;;15.80;99.90;;;;;;4751557;30;20261;-85
2021/05/29 11:06:57;;;;;;;3.75;1.10;;;15.70;99.90;;;;;;4751844;30;20194;-86
2021/05/29 11:09:26;;;;;;;1.40;1.10;;;15.70;99.90;;;;;;4749561;30;20202;-85
2021/05/29 11:11:57;;;;;;;3.45;1.50;;;15.60;99.90;;;;;;4731501;30;20226;-83
2021/05/29 11:14:22;;;;;;;3.42;1.27;;;15.80;99.90;;;;;;4748872;30;20309;-85
2021/05/29 11:16:52;;;;;;;1.50;1.25;;;15.80;99.90;;;;;;4751584;30;20889;-86
2021/05/29 11:19:19;;;;;;;1.58;1.10;;;15.90;99.90;;;;;;4735528;30;20653;-87
2021/05/29 11:22:09;;;;;;;1.17;1.08;;;16.10;99.90;;;;;;4734663;30;20219;-84
2021/05/29 11:24:53;;;;;;;4.55;1.10;;;16.20;99.90;;;;;;4734879;30;20250;-84
2021/05/29 11:27:35;;;;;;;4.57;1.23;;;16.10;99.90;;;;;;4730568;30;20547;-87
2021/05/29 11:30:03;;;;;;;1.05;0.80;;;16.00;99.90;;;;;;4753067;30;20209;-85
2021/05/29 11:33:36;;;;;;;1.77;1.10;;;16.20;99.90;;;;;;4753307;30;20281;-85
2021/05/29 11:35:47;;;;;;;3.70;1.30;;;16.40;99.90;;;;;;4744143;30;20321;-85
2021/05/29 11:38:22;;;;;;;1.45;1.35;;;16.00;99.90;;;;;;4737503;30;20186;-87
2021/05/29 11:40:56;;;;;;;2.67;1.25;;;16.10;99.90;;;;;;4752445;30;20194;-88
2021/05/29 11:43:32;;;;;;;4.30;1.42;;;16.10;99.90;;;;;;4751661;30;20194;-87
2021/05/29 11:46:00;;;;;;;2.65;1.30;;;16.10;99.90;;;;;;4746378;30;20191;-86
2021/05/29 11:48:37;;;;;;;1.42;1.27;;;17.50;99.90;;;;;;4731392;30;20202;-87
2021/05/29 11:51:10;;;;;;;1.90;1.50;;;16.70;99.90;;;;;;4751431;30;20222;-87
2021/05/29 11:53:37;;;;;;;2.55;1.70;;;16.70;99.90;;;;;;4751110;30;20195;-85
2021/05/29 11:56:05;;;;;;;1.33;1.23;;;16.80;99.90;;;;;;4732138;30;20213;-86
2021/05/29 11:58:42;;;;;;;1.42;1.33;;;17.00;99.90;;;;;;4732604;30;20195;-85
2021/05/29 12:01:08;;;;;;;1.88;1.23;;;17.10;99.90;;;;;;4746902;30;20572;-86
2021/05/29 12:03:39;;;;;;;1.13;1.00;;;17.00;99.90;;;;;;4734863;30;20195;-84
2021/05/29 12:06:05;;;;;;;1.60;1.13;;;17.00;99.90;;;;;;4750429;30;20191;-85
2021/05/29 12:08:31;;;;;;;1.60;1.50;;;16.90;99.90;;;;;;4735101;30;20226;-84
2021/05/29 12:10:57;;;;;;;3.22;1.15;;;;;;;;;;4743484;30;20204;-85
2021/05/29 12:13:28;;;;;;;1.88;1.30;;;16.70;99.90;;;;;;4749000;30;20563;-85
2021/05/29 12:16:02;;;;;;;3.30;1.38;;;16.50;99.90;;;;;;4750015;30;20217;-85
2021/05/29 12:18:38;;;;;;;3.28;1.30;;;16.20;99.90;;;;;;4750673;30;20199;-85
2021/05/29 12:21:06;;;;;;;2.47;1.65;;;16.30;99.90;;;;;;4750534;30;20190;-85
2021/05/29 12:23:58;;;;;;;1.50;1.40;;;16.20;99.90;;;;;;4734599;30;20250;-85
2021/05/29 12:26:26;;;;;;;4.53;1.48;;;16.00;99.90;;;;;;4750462;30;20197;-84
2021/05/29 12:28:52;;;;;;;1.65;1.55;;;15.90;99.90;;;;;;4749603;30;20199;-85
2021/05/29 12:31:22;;;;;;;9.82;1.75;;;16.00;99.90;;;;;;4746080;30;20214;-84
2021/05/29 12:34:01;;;;;;;6.85;2.08;;;16.10;99.90;;;;;;4750603;30;20317;-85
2021/05/29 12:36:27;;;;;;;2.70;2.20;;;16.10;99.90;;;;;;4750309;30;20198;-85
2021/05/29 12:38:54;;;;;;;1.85;1.70;;;16.10;99.90;;;;;;4747108;30;20815;-85
2021/05/29 12:41:23;;;;;;;1.88;1.42;;;16.20;99.90;;;;;;4752787;30;20187;-85
2021/05/29 12:44:05;;;;;;;5.53;1.90;;;16.10;99.90;;;;;;4721914;30;20230;-84
2021/05/29 12:46:32;;;;;;;2.17;1.98;;;16.00;99.90;;;;;;4735428;30;20584;-84
2021/05/29 12:49:16;;;;;;;2.22;1.80;;;15.90;99.90;;;;;;4735535;30;20198;-85
2021/05/29 12:51:43;;;;;;;3.90;2.38;;;16.30;99.90;;;;;;4749989;30;20654;-85
2021/05/29 12:54:10;;;;;;;3.58;1.83;;;15.90;99.90;;;;;;4750176;30;20217;-85
2021/05/29 12:56:36;;;;;;;3.15;1.90;;;15.80;99.90;;;;;;4750286;30;20208;-85
2021/05/29 12:59:07;;;;;;;2.80;1.90;;;15.80;99.90;;;;;;4734392;30;20187;-86
2021/05/29 13:10:28;;;;;;;3.58;1.67;;;15.60;99.90;;;;;;4749553;30;20683;-84
2021/05/29 13:13:06;;;;;;;2.28;1.92;;;15.50;99.90;;;;;;4748283;30;20587;-84